createdAt,value
2017-03-15T00:00:16.224Z,33.26
2017-03-15T00:01:26.472Z,33.36
2017-03-15T00:02:36.102Z,33.26
2017-03-15T00:03:46.360Z,33.26
2017-03-15T00:04:56.299Z,33.36
2017-03-15T00:06:05.923Z,33.07
2017-03-15T00:07:16.175Z,32.97
2017-03-15T00:08:25.803Z,33.07
2017-03-15T00:09:35.739Z,33.26
2017-03-15T00:10:45.039Z,33.36
2017-03-15T00:11:55.283Z,33.45
2017-03-15T00:13:04.912Z,33.36
2017-03-15T00:14:15.160Z,33.26
2017-03-15T00:15:25.094Z,33.36
2017-03-15T00:16:35.344Z,33.26
2017-03-15T00:17:45.276Z,33.26
2017-03-15T00:18:54.900Z,33.16
2017-03-15T00:20:05.162Z,33.64
2017-03-15T00:21:15.102Z,33.54
2017-03-15T00:22:25.352Z,33.45
2017-03-15T00:23:35.602Z,33.07
2017-03-15T00:24:45.531Z,33.26
2017-03-15T00:25:55.782Z,33.54
2017-03-15T00:27:06.034Z,33.26
2017-03-15T00:28:15.963Z,33.36
2017-03-15T00:29:25.913Z,33.74
2017-03-15T00:30:36.187Z,33.26
2017-03-15T00:31:46.124Z,33.45
2017-03-15T00:32:56.377Z,33.26
2017-03-15T00:34:06.623Z,33.45
2017-03-15T00:35:16.867Z,33.45
2017-03-15T00:36:26.492Z,33.45
2017-03-15T00:37:36.740Z,33.54
2017-03-15T00:38:46.986Z,33.45
2017-03-15T00:39:56.930Z,33.64
2017-03-15T00:41:06.863Z,33.64
2017-03-15T00:42:16.805Z,33.45
2017-03-15T00:43:26.752Z,33.54
2017-03-15T00:44:37.005Z,33.54
2017-03-15T00:45:46.325Z,33.54
2017-03-15T00:46:56.262Z,33.84
2017-03-15T00:48:06.533Z,33.54
2017-03-15T00:49:16.476Z,33.26
2017-03-15T00:50:26.729Z,33.54
2017-03-15T00:51:36.672Z,33.54
2017-03-15T00:52:46.605Z,33.26
2017-03-15T00:53:56.858Z,33.54
2017-03-15T00:55:07.111Z,33.74
2017-03-15T00:56:17.359Z,33.54
2017-03-15T00:57:26.977Z,33.64
2017-03-15T00:58:36.917Z,33.74
2017-03-15T00:59:46.577Z,33.74
2017-03-15T01:00:56.523Z,33.74
2017-03-15T01:02:06.143Z,33.74
2017-03-15T01:03:16.082Z,33.64
2017-03-15T01:04:26.022Z,33.54
2017-03-15T01:05:35.961Z,33.64
2017-03-15T01:06:45.896Z,33.45
2017-03-15T01:07:56.144Z,33.36
2017-03-15T01:09:06.082Z,33.64
2017-03-15T01:10:16.331Z,33.45
2017-03-15T01:11:26.268Z,33.74
2017-03-15T01:12:36.209Z,33.74
2017-03-15T01:13:46.458Z,33.84
2017-03-15T01:14:55.766Z,33.64
2017-03-15T01:16:05.708Z,33.84
2017-03-15T01:17:15.652Z,33.74
2017-03-15T01:18:25.586Z,33.54
2017-03-15T01:19:35.833Z,34.31
2017-03-15T01:20:46.072Z,34.03
2017-03-15T01:21:56.016Z,33.64
2017-03-15T01:23:05.963Z,33.54
2017-03-15T01:24:16.234Z,33.26
2017-03-15T01:25:26.471Z,33.36
2017-03-15T01:26:36.723Z,33.54
2017-03-15T01:27:46.669Z,33.07
2017-03-15T01:28:56.609Z,33.26
2017-03-15T01:30:06.551Z,33.07
2017-03-15T01:31:16.808Z,33.54
2017-03-15T01:32:26.738Z,33.16
2017-03-15T01:33:36.674Z,33.07
2017-03-15T01:34:46.609Z,33.16
2017-03-15T01:35:56.570Z,32.97
2017-03-15T01:37:06.814Z,33.64
2017-03-15T01:38:16.443Z,33.26
2017-03-15T01:39:26.701Z,33.26
2017-03-15T01:40:36.952Z,33.16
2017-03-15T01:41:46.585Z,33.26
2017-03-15T01:42:56.532Z,33.54
2017-03-15T01:44:06.162Z,33.16
2017-03-15T01:45:16.116Z,33.45
2017-03-15T01:46:26.046Z,33.45
2017-03-15T01:47:35.989Z,33.36
2017-03-15T01:48:46.236Z,33.45
2017-03-15T01:49:56.171Z,33.26
2017-03-15T01:51:05.800Z,33.26
2017-03-15T01:52:16.049Z,33.64
2017-03-15T01:53:25.357Z,33.45
2017-03-15T01:54:35.294Z,33.26
2017-03-15T01:55:45.224Z,33.26
2017-03-15T01:56:55.172Z,33.54
2017-03-15T01:58:04.477Z,33.26
2017-03-15T01:59:14.402Z,33.26
2017-03-15T02:00:24.348Z,33.26
2017-03-15T02:01:34.602Z,33.16
2017-03-15T02:02:44.582Z,33.16
2017-03-15T02:03:54.544Z,33.36
2017-03-15T02:05:04.787Z,33.64
2017-03-15T02:06:15.042Z,33.54
2017-03-15T02:07:24.992Z,33.45
2017-03-15T02:08:34.928Z,33.36
2017-03-15T02:09:45.185Z,33.54
2017-03-15T02:10:55.122Z,33.54
2017-03-15T02:12:04.744Z,33.54
2017-03-15T02:13:14.998Z,33.54
2017-03-15T02:14:24.939Z,33.54
2017-03-15T02:15:34.581Z,33.54
2017-03-15T02:16:44.202Z,33.74
2017-03-15T02:17:54.449Z,33.84
2017-03-15T02:19:04.380Z,33.74
2017-03-15T02:20:13.687Z,33.74
2017-03-15T02:21:23.627Z,33.93
2017-03-15T02:22:33.871Z,33.84
2017-03-15T02:23:44.117Z,33.74
2017-03-15T02:24:53.744Z,33.84
2017-03-15T02:26:03.681Z,33.74
2017-03-15T02:27:13.306Z,33.64
2017-03-15T02:28:23.560Z,34.03
2017-03-15T02:29:33.184Z,33.74
2017-03-15T02:30:43.434Z,33.84
2017-03-15T02:31:53.366Z,33.75
2017-03-15T02:33:03.601Z,33.84
2017-03-15T02:34:13.851Z,34.03
2017-03-15T02:35:23.782Z,33.64
2017-03-15T02:36:33.725Z,33.74
2017-03-15T02:37:43.978Z,33.64
2017-03-15T02:38:53.907Z,34.12
2017-03-15T02:40:04.164Z,33.74
2017-03-15T02:41:14.113Z,33.93
2017-03-15T02:42:24.363Z,34.03
2017-03-15T02:43:34.631Z,34.12
2017-03-15T02:44:44.572Z,33.84
2017-03-15T02:45:54.524Z,33.64
2017-03-15T02:47:04.484Z,33.84
2017-03-15T02:48:14.733Z,34.03
2017-03-15T02:49:24.673Z,33.64
2017-03-15T02:50:34.622Z,34.12
2017-03-15T02:51:44.254Z,34.7
2017-03-15T02:52:54.185Z,34.51
2017-03-15T02:54:04.434Z,34.7
2017-03-15T02:55:14.061Z,34.7
2017-03-15T02:56:23.996Z,34.61
2017-03-15T02:57:34.249Z,34.7
2017-03-15T02:58:44.195Z,34.89
2017-03-15T02:59:53.816Z,34.61
2017-03-15T03:01:03.767Z,34.89
2017-03-15T03:02:14.017Z,35.18
2017-03-15T03:03:23.631Z,35.18
2017-03-15T03:04:33.875Z,34.7
2017-03-15T03:05:44.127Z,34.99
2017-03-15T03:06:54.054Z,35.08
2017-03-15T03:08:04.317Z,35.18
2017-03-15T03:09:14.252Z,34.8
2017-03-15T03:10:24.189Z,35.08
2017-03-15T03:11:33.819Z,34.99
2017-03-15T03:12:44.072Z,34.8
2017-03-15T03:13:54.001Z,34.8
2017-03-15T03:15:04.249Z,34.7
2017-03-15T03:16:13.899Z,34.89
2017-03-15T03:17:24.147Z,34.89
2017-03-15T03:18:34.102Z,34.8
2017-03-15T03:19:44.049Z,34.8
2017-03-15T03:20:53.981Z,34.8
2017-03-15T03:22:03.917Z,34.8
2017-03-15T03:23:13.533Z,34.7
2017-03-15T03:24:23.788Z,34.8
2017-03-15T03:25:34.050Z,34.89
2017-03-15T03:26:44.299Z,34.89
2017-03-15T03:27:54.236Z,34.61
2017-03-15T03:29:04.482Z,34.61
2017-03-15T03:30:13.790Z,34.8
2017-03-15T03:31:23.728Z,34.61
2017-03-15T03:32:33.355Z,34.31
2017-03-15T03:33:43.601Z,34.41
2017-03-15T03:34:53.853Z,34.41
2017-03-15T03:36:03.790Z,34.31
2017-03-15T03:37:13.406Z,34.61
2017-03-15T03:38:23.647Z,34.61
2017-03-15T03:39:33.585Z,34.51
2017-03-15T03:40:43.830Z,34.7
2017-03-15T03:41:54.076Z,34.61
2017-03-15T03:43:04.012Z,34.7
2017-03-15T03:44:13.945Z,34.7
2017-03-15T03:45:24.202Z,34.7
2017-03-15T03:46:34.138Z,34.61
2017-03-15T03:47:44.399Z,34.22
2017-03-15T03:48:54.641Z,34.12
2017-03-15T03:50:04.901Z,33.84
2017-03-15T03:51:14.851Z,33.45
2017-03-15T03:52:24.788Z,33.54
2017-03-15T03:53:34.727Z,33.64
2017-03-15T03:54:44.980Z,33.16
2017-03-15T03:55:54.598Z,33.54
2017-03-15T03:57:04.869Z,33.54
2017-03-15T03:58:14.800Z,33.45
2017-03-15T03:59:24.741Z,33.16
2017-03-15T04:00:34.689Z,33.26
2017-03-15T04:01:44.310Z,33.45
2017-03-15T04:02:54.552Z,33.84
2017-03-15T04:04:04.800Z,33.84
2017-03-15T04:05:14.742Z,33.36
2017-03-15T04:06:24.676Z,33.26
2017-03-15T04:07:34.617Z,33.26
2017-03-15T04:08:44.887Z,33.36
2017-03-15T04:09:55.139Z,33.16
2017-03-15T04:11:05.381Z,33.36
2017-03-15T04:12:15.313Z,33.36
2017-03-15T04:13:25.566Z,33.16
2017-03-15T04:14:35.821Z,33.36
2017-03-15T04:15:45.764Z,33.28
2017-03-15T04:16:55.384Z,33.45
2017-03-15T04:18:05.322Z,33.18
2017-03-15T04:19:15.261Z,33.26
2017-03-15T04:20:25.530Z,33.26
2017-03-15T04:21:35.791Z,33.37
2017-03-15T04:22:45.732Z,33.37
2017-03-15T04:23:55.668Z,33.37
2017-03-15T04:25:05.291Z,33.45
2017-03-15T04:26:15.560Z,33.18
2017-03-15T04:27:25.814Z,33.18
2017-03-15T04:28:35.429Z,33.47
2017-03-15T04:29:45.386Z,33.66
2017-03-15T04:30:55.632Z,33.64
2017-03-15T04:32:05.880Z,33.64
2017-03-15T04:33:15.808Z,33.54
2017-03-15T04:34:26.062Z,33.45
2017-03-15T04:35:36.327Z,33.66
2017-03-15T04:36:46.579Z,33.56
2017-03-15T04:37:56.837Z,33.26
2017-03-15T04:39:06.783Z,33.56
2017-03-15T04:40:17.038Z,33.36
2017-03-15T04:41:27.290Z,33.47
2017-03-15T04:42:37.227Z,33.18
2017-03-15T04:43:47.480Z,33.28
2017-03-15T04:44:57.734Z,33.56
2017-03-15T04:46:07.667Z,33.18
2017-03-15T04:47:17.303Z,33.28
2017-03-15T04:48:27.252Z,33.54
2017-03-15T04:49:37.200Z,33.47
2017-03-15T04:50:47.133Z,33.47
2017-03-15T04:51:57.070Z,33.37
2017-03-15T04:53:07.001Z,33.37
2017-03-15T04:54:17.263Z,33.74
2017-03-15T04:55:27.517Z,33.47
2017-03-15T04:56:37.457Z,33.84
2017-03-15T04:57:47.084Z,33.75
2017-03-15T04:58:57.018Z,33.54
2017-03-15T05:00:07.261Z,33.45
2017-03-15T05:01:16.898Z,34.03
2017-03-15T05:02:26.842Z,33.74
2017-03-15T05:03:36.497Z,33.54
2017-03-15T05:04:46.448Z,33.84
2017-03-15T05:05:56.702Z,33.93
2017-03-15T05:07:06.953Z,33.64
2017-03-15T05:08:16.898Z,33.45
2017-03-15T05:09:27.160Z,33.54
2017-03-15T05:10:37.402Z,33.64
2017-03-15T05:11:47.654Z,33.16
2017-03-15T05:12:57.898Z,33.45
2017-03-15T05:14:07.518Z,33.45
2017-03-15T05:15:17.765Z,33.54
2017-03-15T05:16:28.018Z,33.54
2017-03-15T05:17:38.261Z,33.45
2017-03-15T05:18:48.205Z,33.54
2017-03-15T05:19:58.138Z,33.45
2017-03-15T05:21:07.757Z,33.56
2017-03-15T05:22:17.693Z,33.84
2017-03-15T05:23:27.938Z,33.54
2017-03-15T05:24:37.570Z,33.45
2017-03-15T05:25:47.513Z,33.54
2017-03-15T05:26:57.124Z,33.64
2017-03-15T05:28:07.376Z,33.64
2017-03-15T05:29:17.001Z,33.54
2017-03-15T05:30:27.250Z,33.84
2017-03-15T05:31:37.497Z,33.45
2017-03-15T05:32:47.113Z,33.54
2017-03-15T05:33:57.048Z,33.45
2017-03-15T05:35:07.303Z,33.64
2017-03-15T05:36:17.239Z,33.26
2017-03-15T05:37:27.495Z,33.16
2017-03-15T05:38:37.114Z,33.45
2017-03-15T05:39:46.731Z,33.54
2017-03-15T05:40:56.668Z,33.45
2017-03-15T05:42:06.601Z,33.16
2017-03-15T05:43:16.534Z,33.26
2017-03-15T05:44:26.474Z,33.45
2017-03-15T05:45:36.409Z,33.64
2017-03-15T05:46:46.661Z,33.36
2017-03-15T05:47:56.908Z,33.26
2017-03-15T05:49:06.218Z,33.36
2017-03-15T05:50:16.467Z,33.16
2017-03-15T05:51:26.409Z,33.64
2017-03-15T05:52:36.342Z,33.54
2017-03-15T05:53:46.292Z,33.45
2017-03-15T05:54:56.231Z,33.36
2017-03-15T05:56:06.165Z,33.74
2017-03-15T05:57:16.103Z,33.64
2017-03-15T05:58:26.359Z,34.03
2017-03-15T05:59:36.608Z,33.64
2017-03-15T06:00:46.855Z,33.64
2017-03-15T06:01:57.102Z,33.45
2017-03-15T06:03:07.034Z,34.03
2017-03-15T06:04:16.971Z,34.03
2017-03-15T06:05:27.246Z,34.03
2017-03-15T06:06:37.177Z,34.03
2017-03-15T06:07:47.434Z,34.22
2017-03-15T06:08:57.366Z,34.03
2017-03-15T06:10:07.619Z,34.31
2017-03-15T06:11:17.897Z,34.22
2017-03-15T06:12:27.556Z,34.12
2017-03-15T06:13:37.818Z,34.22
2017-03-15T06:14:47.769Z,34.31
2017-03-15T06:15:58.022Z,34.31
2017-03-15T06:17:08.265Z,34.31
2017-03-15T06:18:18.516Z,34.22
2017-03-15T06:19:28.760Z,34.03
2017-03-15T06:20:38.389Z,34.31
2017-03-15T06:21:48.645Z,34.41
2017-03-15T06:22:57.952Z,34.03
2017-03-15T06:24:08.202Z,33.45
2017-03-15T06:25:17.819Z,33.74
2017-03-15T06:26:27.760Z,34.05
2017-03-15T06:27:37.689Z,33.84
2017-03-15T06:28:47.625Z,34.41
2017-03-15T06:29:57.569Z,34.31
2017-03-15T06:31:07.511Z,34.31
2017-03-15T06:32:17.767Z,34.22
2017-03-15T06:33:27.388Z,34.31
2017-03-15T06:34:37.323Z,34.31
2017-03-15T06:35:47.251Z,34.03
2017-03-15T06:36:57.496Z,34.31
2017-03-15T06:38:07.432Z,34.12
2017-03-15T06:39:17.682Z,34.03
2017-03-15T06:40:27.932Z,34.03
2017-03-15T06:41:37.560Z,33.93
2017-03-15T06:42:47.499Z,33.56
2017-03-15T06:43:57.123Z,33.93
2017-03-15T06:45:07.372Z,33.66
2017-03-15T06:46:17.612Z,33.66
2017-03-15T06:47:27.859Z,33.84
2017-03-15T06:48:37.792Z,33.85
2017-03-15T06:49:47.726Z,33.56
2017-03-15T06:50:57.664Z,33.66
2017-03-15T06:52:07.923Z,33.66
2017-03-15T06:53:17.246Z,33.75
2017-03-15T06:54:26.874Z,33.85
2017-03-15T06:55:37.121Z,33.95
2017-03-15T06:56:47.382Z,34.14
2017-03-15T06:57:57.321Z,34.23
2017-03-15T06:59:07.265Z,33.95
2017-03-15T07:00:17.508Z,33.56
2017-03-15T07:01:27.464Z,33.85
2017-03-15T07:02:37.096Z,33.95
2017-03-15T07:03:47.375Z,34.05
2017-03-15T07:04:57.313Z,34.14
2017-03-15T07:06:07.253Z,34.05
2017-03-15T07:07:17.187Z,34.43
2017-03-15T07:08:27.445Z,34.33
2017-03-15T07:09:37.389Z,33.75
2017-03-15T07:10:47.332Z,33.56
2017-03-15T07:11:57.266Z,33.37
2017-03-15T07:13:07.211Z,33.47
2017-03-15T07:14:17.459Z,33.85
2017-03-15T07:15:27.410Z,33.95
2017-03-15T07:16:37.652Z,33.85
2017-03-15T07:17:47.585Z,33.85
2017-03-15T07:18:57.519Z,33.85
2017-03-15T07:20:07.767Z,33.75
2017-03-15T07:21:18.021Z,33.75
2017-03-15T07:22:28.280Z,34.05
2017-03-15T07:23:38.213Z,34.14
2017-03-15T07:24:47.835Z,34.05
2017-03-15T07:25:58.088Z,34.05
2017-03-15T07:27:08.341Z,34.05
2017-03-15T07:28:18.284Z,33.75
2017-03-15T07:29:28.225Z,34.05
2017-03-15T07:30:38.483Z,33.75
2017-03-15T07:31:47.789Z,33.95
2017-03-15T07:32:57.736Z,33.56
2017-03-15T07:34:07.991Z,33.66
2017-03-15T07:35:18.243Z,33.85
2017-03-15T07:36:28.185Z,33.56
2017-03-15T07:37:38.121Z,33.66
2017-03-15T07:38:48.073Z,33.66
2017-03-15T07:39:58.318Z,33.85
2017-03-15T07:41:08.285Z,33.47
2017-03-15T07:42:18.225Z,33.85
2017-03-15T07:43:28.163Z,33.47
2017-03-15T07:44:38.092Z,33.56
2017-03-15T07:45:48.333Z,33.56
2017-03-15T07:46:58.269Z,33.66
2017-03-15T07:48:07.914Z,33.47
2017-03-15T07:49:17.847Z,33.37
2017-03-15T07:50:28.099Z,33.95
2017-03-15T07:51:38.046Z,33.66
2017-03-15T07:52:47.671Z,33.56
2017-03-15T07:53:57.616Z,33.56
2017-03-15T07:55:07.555Z,33.85
2017-03-15T07:56:17.179Z,33.66
2017-03-15T07:57:27.423Z,33.66
2017-03-15T07:58:37.353Z,33.47
2017-03-15T07:59:47.293Z,33.47
2017-03-15T08:00:57.234Z,33.47
2017-03-15T08:02:07.486Z,33.66
2017-03-15T08:03:17.736Z,33.66
2017-03-15T08:04:27.390Z,33.66
2017-03-15T08:05:37.639Z,33.56
2017-03-15T08:06:47.273Z,33.66
2017-03-15T08:07:57.202Z,33.85
2017-03-15T08:09:07.446Z,33.75
2017-03-15T08:10:17.690Z,33.47
2017-03-15T08:11:27.001Z,33.75
2017-03-15T08:12:37.254Z,33.37
2017-03-15T08:13:47.502Z,33.47
2017-03-15T08:14:57.437Z,33.28
2017-03-15T08:16:07.368Z,33.28
2017-03-15T08:17:17.306Z,33.18
2017-03-15T08:18:27.235Z,33.75
2017-03-15T08:19:37.173Z,33.28
2017-03-15T08:20:47.428Z,33.37
2017-03-15T08:21:57.365Z,33.18
2017-03-15T08:23:07.304Z,33.47
2017-03-15T08:24:17.247Z,33.37
2017-03-15T08:25:27.212Z,33.56
2017-03-15T08:26:37.463Z,33.08
2017-03-15T08:27:47.395Z,33.18
2017-03-15T08:28:57.331Z,33.56
2017-03-15T08:30:07.583Z,33.56
2017-03-15T08:31:17.204Z,33.18
2017-03-15T08:32:26.200Z,33.56
2017-03-15T08:33:36.142Z,33.37
2017-03-15T08:34:45.759Z,33.28
2017-03-15T08:35:55.696Z,33.18
2017-03-15T08:37:05.312Z,33.28
2017-03-15T08:38:15.247Z,33.18
2017-03-15T08:39:25.187Z,33.28
2017-03-15T08:40:35.454Z,33.18
2017-03-15T08:41:45.080Z,33.28
2017-03-15T08:42:55.020Z,33.28
2017-03-15T08:44:05.268Z,33.28
2017-03-15T08:45:14.894Z,33.08
2017-03-15T08:46:25.151Z,33.18
2017-03-15T08:47:35.404Z,33.28
2017-03-15T08:48:45.019Z,33.28
2017-03-15T08:49:55.264Z,33.47
2017-03-15T08:51:05.207Z,33.28
2017-03-15T08:52:15.139Z,33.18
2017-03-15T08:53:25.387Z,33.18
2017-03-15T08:54:35.637Z,33.47
2017-03-15T08:55:45.252Z,33.18
2017-03-15T08:56:54.256Z,33.28
2017-03-15T08:58:03.876Z,33.28
2017-03-15T08:59:14.117Z,33.18
2017-03-15T09:00:24.046Z,33.18
2017-03-15T09:01:34.287Z,33.56
2017-03-15T09:02:43.596Z,33.56
2017-03-15T09:03:53.219Z,32.98
2017-03-15T09:05:03.453Z,33.18
2017-03-15T09:06:13.066Z,33.47
2017-03-15T09:07:23.317Z,33.37
2017-03-15T09:08:33.243Z,33.18
2017-03-15T09:09:43.489Z,33.47
2017-03-15T09:10:53.414Z,33.08
2017-03-15T09:12:03.652Z,32.98
2017-03-15T09:13:13.273Z,33.56
2017-03-15T09:14:23.521Z,33.47
2017-03-15T09:15:33.768Z,33.08
2017-03-15T09:16:44.014Z,33.08
2017-03-15T09:17:54.260Z,33.47
2017-03-15T09:19:03.875Z,33.28
2017-03-15T09:20:14.321Z,33.47
2017-03-15T09:21:24.286Z,33.47
2017-03-15T09:22:33.910Z,32.98
2017-03-15T09:23:43.545Z,33.37
2017-03-15T09:24:52.849Z,33.18
2017-03-15T09:26:02.782Z,33.47
2017-03-15T09:27:13.029Z,33.37
2017-03-15T09:28:22.650Z,32.98
2017-03-15T09:29:32.896Z,33.08
2017-03-15T09:30:43.146Z,33.08
2017-03-15T09:31:53.406Z,33.08
2017-03-15T09:33:03.652Z,33.28
2017-03-15T09:34:13.592Z,33.28
2017-03-15T09:35:23.522Z,33.28
2017-03-15T09:36:33.461Z,33.28
2017-03-15T09:37:43.712Z,33.29
2017-03-15T09:38:53.074Z,33.28
2017-03-15T09:40:02.696Z,33.28
2017-03-15T09:41:12.949Z,32.98
2017-03-15T09:42:22.882Z,33.08
2017-03-15T09:43:32.810Z,33.37
2017-03-15T09:44:43.056Z,33.28
2017-03-15T09:45:52.992Z,33.08
2017-03-15T09:47:02.931Z,33.28
2017-03-15T09:48:13.181Z,33.28
2017-03-15T09:49:23.421Z,33.37
2017-03-15T09:50:33.036Z,33.18
2017-03-15T09:51:42.968Z,33.18
2017-03-15T09:52:53.214Z,33.18
2017-03-15T09:54:03.149Z,33.18
2017-03-15T09:55:13.399Z,32.79
2017-03-15T09:56:23.329Z,33.18
2017-03-15T09:57:33.259Z,33.37
2017-03-15T09:58:42.875Z,33.28
2017-03-15T09:59:52.795Z,32.89
2017-03-15T10:01:03.033Z,32.98
2017-03-15T10:02:12.961Z,33.28
2017-03-15T10:03:22.896Z,33.28
2017-03-15T10:04:32.512Z,33.28
2017-03-15T10:05:41.813Z,33.28
2017-03-15T10:06:52.075Z,32.89
2017-03-15T10:08:01.381Z,33.37
2017-03-15T10:09:11.344Z,33.28
2017-03-15T10:10:21.278Z,32.98
2017-03-15T10:11:31.217Z,33.28
2017-03-15T10:12:41.463Z,33.37
2017-03-15T10:13:51.393Z,33.28
2017-03-15T10:15:01.008Z,32.89
2017-03-15T10:16:10.941Z,33.37
2017-03-15T10:17:20.880Z,33.37
2017-03-15T10:18:31.120Z,32.89
2017-03-15T10:19:41.050Z,33.28
2017-03-15T10:20:50.975Z,33.08
2017-03-15T10:22:01.212Z,33.08
2017-03-15T10:23:11.141Z,33.08
2017-03-15T10:24:21.382Z,32.79
2017-03-15T10:25:31.626Z,32.6
2017-03-15T10:26:41.563Z,33.08
2017-03-15T10:27:51.519Z,33.18
2017-03-15T10:29:01.136Z,33.18
2017-03-15T10:30:10.453Z,33.08
2017-03-15T10:31:20.381Z,32.79
2017-03-15T10:32:30.253Z,32.98
2017-03-15T10:33:40.199Z,33.08
2017-03-15T10:34:50.143Z,33.08
2017-03-15T10:36:00.078Z,33.08
2017-03-15T10:37:10.317Z,33.08
2017-03-15T10:38:20.281Z,32.7
2017-03-15T10:39:29.927Z,33.18
2017-03-15T10:40:39.853Z,33.18
2017-03-15T10:41:50.095Z,33.18
2017-03-15T10:43:00.339Z,32.7
2017-03-15T10:44:10.579Z,32.98
2017-03-15T10:45:20.528Z,32.98
2017-03-15T10:46:30.457Z,32.6
2017-03-15T10:47:40.387Z,32.89
2017-03-15T10:48:50.627Z,32.6
2017-03-15T10:50:00.558Z,32.98
2017-03-15T10:51:10.176Z,32.98
2017-03-15T10:52:20.415Z,32.89
2017-03-15T10:53:30.367Z,32.79
2017-03-15T10:54:40.299Z,32.89
2017-03-15T10:55:50.544Z,32.79
2017-03-15T10:57:00.164Z,32.89
2017-03-15T10:58:10.089Z,32.98
2017-03-15T10:59:20.023Z,32.6
2017-03-15T11:00:30.269Z,32.98
2017-03-15T11:01:39.891Z,32.89
2017-03-15T11:02:50.145Z,32.79
2017-03-15T11:03:59.444Z,32.89
2017-03-15T11:05:09.377Z,32.89
2017-03-15T11:06:19.309Z,32.98
2017-03-15T11:07:29.250Z,32.6
2017-03-15T11:08:38.871Z,32.89
2017-03-15T11:09:49.117Z,32.89
2017-03-15T11:10:58.738Z,32.89
2017-03-15T11:12:08.672Z,32.89
2017-03-15T11:13:18.602Z,32.6
2017-03-15T11:14:28.528Z,32.89
2017-03-15T11:15:38.142Z,32.89
2017-03-15T11:16:47.752Z,32.98
2017-03-15T11:17:57.367Z,32.6
2017-03-15T11:19:06.703Z,32.98
2017-03-15T11:20:16.942Z,32.98
2017-03-15T11:21:26.558Z,32.98
2017-03-15T11:22:36.490Z,32.79
2017-03-15T11:23:46.419Z,32.89
2017-03-15T11:24:56.033Z,32.89
2017-03-15T11:26:05.964Z,32.89
2017-03-15T11:27:16.202Z,32.89
2017-03-15T11:28:26.127Z,32.79
2017-03-15T11:29:35.758Z,32.98
2017-03-15T11:30:45.708Z,32.89
2017-03-15T11:31:55.991Z,32.98
2017-03-15T11:33:05.917Z,32.79
2017-03-15T11:34:16.162Z,32.89
2017-03-15T11:35:26.404Z,32.89
2017-03-15T11:36:36.332Z,32.79
2017-03-15T11:37:45.944Z,32.89
2017-03-15T11:38:55.878Z,32.89
2017-03-15T11:40:04.859Z,32.89
2017-03-15T11:41:14.782Z,32.79
2017-03-15T11:42:24.707Z,32.6
2017-03-15T11:43:34.639Z,32.6
2017-03-15T11:44:44.881Z,32.89
2017-03-15T11:45:54.805Z,32.98
2017-03-15T11:47:04.734Z,32.89
2017-03-15T11:48:14.655Z,32.89
2017-03-15T11:49:24.905Z,32.6
2017-03-15T11:50:34.517Z,32.89
2017-03-15T11:51:44.139Z,32.89
2017-03-15T11:52:54.063Z,32.79
2017-03-15T11:54:03.669Z,32.89
2017-03-15T11:55:13.286Z,32.79
2017-03-15T11:56:23.531Z,32.89
2017-03-15T11:57:33.151Z,32.89
2017-03-15T11:58:43.081Z,32.89
2017-03-15T11:59:53.009Z,32.89
2017-03-15T12:01:02.936Z,32.51
2017-03-15T12:02:12.867Z,32.6
2017-03-15T12:03:23.128Z,32.98
2017-03-15T12:04:33.368Z,32.6
2017-03-15T12:05:43.607Z,32.89
2017-03-15T12:06:53.224Z,32.89
2017-03-15T12:08:03.466Z,32.98
2017-03-15T12:09:13.398Z,32.6
2017-03-15T12:10:23.008Z,32.89
2017-03-15T12:11:32.931Z,32.89
2017-03-15T12:12:43.169Z,32.6
2017-03-15T12:13:53.100Z,32.6
2017-03-15T12:15:03.042Z,32.89
2017-03-15T12:16:12.966Z,32.6
2017-03-15T12:17:22.574Z,32.89
2017-03-15T12:18:32.496Z,32.98
2017-03-15T12:19:42.420Z,33.08
2017-03-15T12:20:52.034Z,33.08
2017-03-15T12:22:01.641Z,32.89
2017-03-15T12:23:11.877Z,32.89
2017-03-15T12:24:22.111Z,33.08
2017-03-15T12:25:31.414Z,32.89
2017-03-15T12:26:41.347Z,32.98
2017-03-15T12:27:51.267Z,32.6
2017-03-15T12:29:00.881Z,32.79
2017-03-15T12:30:10.809Z,32.7
2017-03-15T12:31:20.727Z,32.62
2017-03-15T12:32:30.965Z,32.71
2017-03-15T12:33:40.895Z,32.71
2017-03-15T12:34:51.132Z,32.71
2017-03-15T12:36:01.058Z,32.71
2017-03-15T12:37:10.987Z,32.7
2017-03-15T12:38:20.924Z,33
2017-03-15T12:39:30.853Z,33
2017-03-15T12:40:41.108Z,32.9
2017-03-15T12:41:51.347Z,33
2017-03-15T12:43:01.302Z,32.9
2017-03-15T12:44:11.242Z,33
2017-03-15T12:45:20.890Z,32.9
2017-03-15T12:46:30.823Z,33
2017-03-15T12:47:41.061Z,32.81
2017-03-15T12:48:51.296Z,32.81
2017-03-15T12:50:00.903Z,32.71
2017-03-15T12:51:10.202Z,33.2
2017-03-15T12:52:20.123Z,32.81
2017-03-15T12:53:30.054Z,33.1
2017-03-15T12:54:39.983Z,33.1
2017-03-15T12:55:50.223Z,33.1
2017-03-15T12:56:59.554Z,32.71
2017-03-15T12:58:08.851Z,32.62
2017-03-15T12:59:19.112Z,33.1
2017-03-15T13:00:28.416Z,33.1
2017-03-15T13:01:38.341Z,33.1
2017-03-15T13:02:47.950Z,33.1
2017-03-15T13:03:57.870Z,33.29
2017-03-15T13:05:07.167Z,33.39
2017-03-15T13:06:17.098Z,33.2
2017-03-15T13:07:27.334Z,32.9
2017-03-15T13:08:36.953Z,33.29
2017-03-15T13:09:46.566Z,33.39
2017-03-15T13:10:55.874Z,33.39
2017-03-15T13:12:05.797Z,33.39
2017-03-15T13:13:15.095Z,33.2
2017-03-15T13:14:25.330Z,33.29
2017-03-15T13:15:35.570Z,32.9
2017-03-15T13:16:45.497Z,33.2
2017-03-15T13:17:55.423Z,32.81
2017-03-15T13:19:05.360Z,32.81
2017-03-15T13:20:15.605Z,33.29
2017-03-15T13:21:24.909Z,33.29
2017-03-15T13:22:35.147Z,32.9
2017-03-15T13:23:44.761Z,33.2
2017-03-15T13:24:54.692Z,32.9
2017-03-15T13:26:04.615Z,33
2017-03-15T13:27:13.921Z,33.1
2017-03-15T13:28:24.159Z,32.9
2017-03-15T13:29:33.774Z,32.9
2017-03-15T13:30:43.694Z,33
2017-03-15T13:31:53.932Z,33.1
2017-03-15T13:33:03.547Z,33
2017-03-15T13:34:13.474Z,33.39
2017-03-15T13:35:23.398Z,33.1
2017-03-15T13:36:33.660Z,32.9
2017-03-15T13:37:43.909Z,33
2017-03-15T13:38:53.854Z,33.2
2017-03-15T13:40:04.091Z,33.1
2017-03-15T13:41:14.015Z,32.81
2017-03-15T13:42:23.943Z,33.2
2017-03-15T13:43:33.871Z,33.2
2017-03-15T13:44:43.799Z,33
2017-03-15T13:45:53.734Z,33.29
2017-03-15T13:47:03.659Z,33.39
2017-03-15T13:48:13.580Z,33.39
2017-03-15T13:49:23.515Z,33.29
2017-03-15T13:50:33.130Z,33.39
2017-03-15T13:51:42.744Z,33.29
2017-03-15T13:52:52.364Z,33
2017-03-15T13:54:02.288Z,33.2
2017-03-15T13:55:12.214Z,33.2
2017-03-15T13:56:22.462Z,33.1
2017-03-15T13:57:32.393Z,33
2017-03-15T13:58:42.004Z,33.58
2017-03-15T13:59:51.308Z,33.29
2017-03-15T14:01:00.922Z,33.29
2017-03-15T14:02:10.229Z,33.29
2017-03-15T14:03:19.845Z,33.21
2017-03-15T14:04:30.088Z,32.81
2017-03-15T14:05:39.710Z,33
2017-03-15T14:06:49.634Z,32.9
2017-03-15T14:07:59.563Z,33
2017-03-15T14:09:09.497Z,33
2017-03-15T14:10:19.117Z,33.39
2017-03-15T14:11:29.359Z,33.2
2017-03-15T14:12:38.653Z,33.2
2017-03-15T14:13:48.892Z,33
2017-03-15T14:14:59.133Z,33.21
2017-03-15T14:16:09.379Z,33.2
2017-03-15T14:17:18.992Z,33.1
2017-03-15T14:18:29.236Z,33.39
2017-03-15T14:19:39.483Z,33.2
2017-03-15T14:20:49.417Z,33.59
2017-03-15T14:21:59.045Z,33.12
2017-03-15T14:23:08.665Z,32.92
2017-03-15T14:24:18.273Z,33.4
2017-03-15T14:25:28.195Z,33.02
2017-03-15T14:26:38.442Z,33.5
2017-03-15T14:27:48.682Z,33.4
2017-03-15T14:28:58.628Z,33.5
2017-03-15T14:30:07.923Z,33.02
2017-03-15T14:31:18.168Z,33.31
2017-03-15T14:32:28.407Z,33.02
2017-03-15T14:33:38.339Z,33.31
2017-03-15T14:34:48.269Z,33.21
2017-03-15T14:35:58.195Z,33.21
2017-03-15T14:37:07.812Z,33.21
2017-03-15T14:38:17.760Z,33.31
2017-03-15T14:39:27.690Z,33.31
2017-03-15T14:40:37.329Z,33.31
2017-03-15T14:41:47.573Z,33.02
2017-03-15T14:42:57.198Z,33.31
2017-03-15T14:44:06.500Z,32.82
2017-03-15T14:45:16.115Z,33.12
2017-03-15T14:46:26.356Z,33.5
2017-03-15T14:47:36.282Z,32.92
2017-03-15T14:48:46.518Z,32.92
2017-03-15T14:49:56.444Z,33.21
2017-03-15T14:51:06.681Z,33.21
2017-03-15T14:52:16.608Z,33.5
2017-03-15T14:53:26.848Z,33.12
2017-03-15T14:54:37.088Z,32.82
2017-03-15T14:55:47.330Z,33.12
2017-03-15T14:56:56.946Z,33.12
2017-03-15T14:58:06.561Z,33.12
2017-03-15T14:59:15.549Z,33.21
2017-03-15T15:00:25.472Z,33.21
2017-03-15T15:01:34.455Z,32.64
2017-03-15T15:02:44.376Z,33.12
2017-03-15T15:03:54.301Z,33.12
2017-03-15T15:05:04.228Z,33.02